sensor_id;sensor_type;location;lat;lon;timestamp;P1;durP1;ratioP1;P2;durP2;ratioP2
23866;SDS011;12114;53.404;-1.502;2023-07-24T00:02:17;5.78;;;3.72;;
23866;SDS011;12114;53.404;-1.502;2023-07-24T00:05:01;8.13;;;3.47;;
23866;SDS011;12114;53.404;-1.502;2023-07-24T00:07:45;7.60;;;3.60;;
23866;SDS011;12114;53.404;-1.502;2023-07-24T00:10:29;9.10;;;3.60;;
23866;SDS011;12114;53.404;-1.502;2023-07-24T00:13:13;9.20;;;4.38;;
23866;SDS011;12114;53.404;-1.502;2023-07-24T00:15:57;7.00;;;4.07;;
23866;SDS011;12114;53.404;-1.502;2023-07-24T00:18:41;10.15;;;4.68;;
23866;SDS011;12114;53.404;-1.502;2023-07-24T00:21:25;8.07;;;4.38;;
23866;SDS011;12114;53.404;-1.502;2023-07-24T00:24:09;6.35;;;3.75;;
23866;SDS011;12114;53.404;-1.502;2023-07-24T00:26:55;6.95;;;3.95;;
23866;SDS011;12114;53.404;-1.502;2023-07-24T00:29:40;7.47;;;4.70;;
23866;SDS011;12114;53.404;-1.502;2023-07-24T00:32:27;10.02;;;4.82;;
23866;SDS011;12114;53.404;-1.502;2023-07-24T00:35:11;11.35;;;4.93;;
23866;SDS011;12114;53.404;-1.502;2023-07-24T00:37:55;7.88;;;4.75;;
23866;SDS011;12114;53.404;-1.502;2023-07-24T00:40:39;7.13;;;4.50;;
23866;SDS011;12114;53.404;-1.502;2023-07-24T00:43:23;9.30;;;5.07;;
23866;SDS011;12114;53.404;-1.502;2023-07-24T00:46:09;8.82;;;4.53;;
23866;SDS011;12114;53.404;-1.502;2023-07-24T00:48:56;7.10;;;4.60;;
23866;SDS011;12114;53.404;-1.502;2023-07-24T00:51:44;9.93;;;5.60;;
23866;SDS011;12114;53.404;-1.502;2023-07-24T00:54:28;8.43;;;4.88;;
23866;SDS011;12114;53.404;-1.502;2023-07-24T00:57:13;7.32;;;5.07;;
23866;SDS011;12114;53.404;-1.502;2023-07-24T00:59:57;7.45;;;4.53;;
23866;SDS011;12114;53.404;-1.502;2023-07-24T01:02:42;9.85;;;5.30;;
23866;SDS011;12114;53.404;-1.502;2023-07-24T01:05:26;8.82;;;4.60;;
23866;SDS011;12114;53.404;-1.502;2023-07-24T01:08:10;13.35;;;4.82;;
23866;SDS011;12114;53.404;-1.502;2023-07-24T01:10:55;9.68;;;4.43;;
23866;SDS011;12114;53.404;-1.502;2023-07-24T01:13:43;15.93;;;5.65;;
23866;SDS011;12114;53.404;-1.502;2023-07-24T01:16:31;11.70;;;5.18;;
23866;SDS011;12114;53.404;-1.502;2023-07-24T01:19:32;7.82;;;5.00;;
23866;SDS011;12114;53.404;-1.502;2023-07-24T01:28:07;12.75;;;5.57;;
23866;SDS011;12114;53.404;-1.502;2023-07-24T01:30:52;14.20;;;6.20;;
23866;SDS011;12114;53.404;-1.502;2023-07-24T01:33:36;10.45;;;5.60;;
23866;SDS011;12114;53.404;-1.502;2023-07-24T01:36:22;11.55;;;5.72;;
23866;SDS011;12114;53.404;-1.502;2023-07-24T01:39:06;9.02;;;5.47;;
23866;SDS011;12114;53.404;-1.502;2023-07-24T01:41:50;13.10;;;5.72;;
23866;SDS011;12114;53.404;-1.502;2023-07-24T01:44:35;11.77;;;5.80;;
23866;SDS011;12114;53.404;-1.502;2023-07-24T01:47:19;13.38;;;6.30;;
23866;SDS011;12114;53.404;-1.502;2023-07-24T01:50:03;17.08;;;7.18;;
23866;SDS011;12114;53.404;-1.502;2023-07-24T01:52:47;12.63;;;6.22;;
23866;SDS011;12114;53.404;-1.502;2023-07-24T01:55:31;29.35;;;9.93;;
23866;SDS011;12114;53.404;-1.502;2023-07-24T01:58:15;26.23;;;8.70;;
23866;SDS011;12114;53.404;-1.502;2023-07-24T02:00:59;18.85;;;7.65;;
23866;SDS011;12114;53.404;-1.502;2023-07-24T02:03:43;21.10;;;8.95;;
23866;SDS011;12114;53.404;-1.502;2023-07-24T02:06:27;13.38;;;6.63;;
23866;SDS011;12114;53.404;-1.502;2023-07-24T02:09:11;10.23;;;6.70;;
23866;SDS011;12114;53.404;-1.502;2023-07-24T02:11:54;9.32;;;5.32;;
23866;SDS011;12114;53.404;-1.502;2023-07-24T02:14:38;10.27;;;6.38;;
23866;SDS011;12114;53.404;-1.502;2023-07-24T02:17:23;16.73;;;6.28;;
23866;SDS011;12114;53.404;-1.502;2023-07-24T02:20:07;10.90;;;6.03;;
23866;SDS011;12114;53.404;-1.502;2023-07-24T02:22:51;13.35;;;6.90;;
23866;SDS011;12114;53.404;-1.502;2023-07-24T02:25:35;10.65;;;6.20;;
23866;SDS011;12114;53.404;-1.502;2023-07-24T02:28:19;15.20;;;8.55;;
23866;SDS011;12114;53.404;-1.502;2023-07-24T02:31:03;13.35;;;7.10;;
23866;SDS011;12114;53.404;-1.502;2023-07-24T02:33:47;13.98;;;7.38;;
23866;SDS011;12114;53.404;-1.502;2023-07-24T02:36:31;16.10;;;8.23;;
23866;SDS011;12114;53.404;-1.502;2023-07-24T02:39:15;15.93;;;9.82;;
23866;SDS011;12114;53.404;-1.502;2023-07-24T02:42:00;21.45;;;12.02;;
23866;SDS011;12114;53.404;-1.502;2023-07-24T02:44:44;12.80;;;8.30;;
23866;SDS011;12114;53.404;-1.502;2023-07-24T02:47:27;15.13;;;8.70;;
23866;SDS011;12114;53.404;-1.502;2023-07-24T02:50:11;15.38;;;8.50;;
23866;SDS011;12114;53.404;-1.502;2023-07-24T02:52:56;11.52;;;7.18;;
23866;SDS011;12114;53.404;-1.502;2023-07-24T02:55:42;13.50;;;6.97;;
23866;SDS011;12114;53.404;-1.502;2023-07-24T02:58:26;13.02;;;8.07;;
23866;SDS011;12114;53.404;-1.502;2023-07-24T03:01:10;10.90;;;6.53;;
23866;SDS011;12114;53.404;-1.502;2023-07-24T03:03:55;10.60;;;6.88;;
23866;SDS011;12114;53.404;-1.502;2023-07-24T03:06:39;9.27;;;5.82;;
23866;SDS011;12114;53.404;-1.502;2023-07-24T03:09:24;9.00;;;6.13;;
23866;SDS011;12114;53.404;-1.502;2023-07-24T03:12:08;13.93;;;7.95;;
23866;SDS011;12114;53.404;-1.502;2023-07-24T03:14:52;14.00;;;7.43;;
23866;SDS011;12114;53.404;-1.502;2023-07-24T03:17:36;11.90;;;7.13;;
23866;SDS011;12114;53.404;-1.502;2023-07-24T03:20:21;9.65;;;6.65;;
23866;SDS011;12114;53.404;-1.502;2023-07-24T03:23:05;11.30;;;7.10;;
23866;SDS011;12114;53.404;-1.502;2023-07-24T03:25:50;15.15;;;7.88;;
23866;SDS011;12114;53.404;-1.502;2023-07-24T03:28:33;14.30;;;7.32;;
23866;SDS011;12114;53.404;-1.502;2023-07-24T03:31:17;8.10;;;5.32;;
23866;SDS011;12114;53.404;-1.502;2023-07-24T03:34:01;10.68;;;6.13;;
23866;SDS011;12114;53.404;-1.502;2023-07-24T03:36:45;11.68;;;7.05;;
23866;SDS011;12114;53.404;-1.502;2023-07-24T03:39:29;11.20;;;6.43;;
23866;SDS011;12114;53.404;-1.502;2023-07-24T03:42:24;11.38;;;6.32;;
23866;SDS011;12114;53.404;-1.502;2023-07-24T03:45:09;10.55;;;5.55;;
23866;SDS011;12114;53.404;-1.502;2023-07-24T03:47:53;10.23;;;6.20;;
23866;SDS011;12114;53.404;-1.502;2023-07-24T03:50:37;14.07;;;6.15;;
23866;SDS011;12114;53.404;-1.502;2023-07-24T03:53:21;13.07;;;5.60;;
23866;SDS011;12114;53.404;-1.502;2023-07-24T03:56:05;20.08;;;6.55;;
23866;SDS011;12114;53.404;-1.502;2023-07-24T03:58:49;13.85;;;6.15;;
23866;SDS011;12114;53.404;-1.502;2023-07-24T04:01:33;12.90;;;6.78;;
23866;SDS011;12114;53.404;-1.502;2023-07-24T04:04:16;13.77;;;6.30;;
23866;SDS011;12114;53.404;-1.502;2023-07-24T04:07:00;16.48;;;6.65;;
23866;SDS011;12114;53.404;-1.502;2023-07-24T04:09:44;13.10;;;6.95;;
23866;SDS011;12114;53.404;-1.502;2023-07-24T04:12:29;17.60;;;6.72;;
23866;SDS011;12114;53.404;-1.502;2023-07-24T04:15:12;18.45;;;7.07;;
23866;SDS011;12114;53.404;-1.502;2023-07-24T04:17:56;18.90;;;6.72;;
23866;SDS011;12114;53.404;-1.502;2023-07-24T04:20:40;16.98;;;6.20;;
23866;SDS011;12114;53.404;-1.502;2023-07-24T04:23:24;17.52;;;7.07;;
23866;SDS011;12114;53.404;-1.502;2023-07-24T04:26:08;13.88;;;6.60;;
23866;SDS011;12114;53.404;-1.502;2023-07-24T04:28:52;18.50;;;6.28;;
23866;SDS011;12114;53.404;-1.502;2023-07-24T04:31:36;23.52;;;7.47;;
23866;SDS011;12114;53.404;-1.502;2023-07-24T04:34:20;16.10;;;6.05;;
23866;SDS011;12114;53.404;-1.502;2023-07-24T04:37:04;14.38;;;6.05;;
23866;SDS011;12114;53.404;-1.502;2023-07-24T04:39:48;17.98;;;6.13;;
23866;SDS011;12114;53.404;-1.502;2023-07-24T04:42:31;20.75;;;6.03;;
23866;SDS011;12114;53.404;-1.502;2023-07-24T04:45:16;24.80;;;6.55;;
23866;SDS011;12114;53.404;-1.502;2023-07-24T04:47:59;20.08;;;6.13;;
23866;SDS011;12114;53.404;-1.502;2023-07-24T04:50:43;19.10;;;5.50;;
23866;SDS011;12114;53.404;-1.502;2023-07-24T04:53:27;15.73;;;5.28;;
23866;SDS011;12114;53.404;-1.502;2023-07-24T04:56:11;19.67;;;5.35;;
23866;SDS011;12114;53.404;-1.502;2023-07-24T04:58:55;17.70;;;5.45;;
23866;SDS011;12114;53.404;-1.502;2023-07-24T05:01:39;16.30;;;4.88;;
23866;SDS011;12114;53.404;-1.502;2023-07-24T05:04:23;21.20;;;5.57;;
23866;SDS011;12114;53.404;-1.502;2023-07-24T05:07:07;16.80;;;4.78;;
23866;SDS011;12114;53.404;-1.502;2023-07-24T05:09:51;18.40;;;4.90;;
23866;SDS011;12114;53.404;-1.502;2023-07-24T05:12:35;15.75;;;4.65;;
23866;SDS011;12114;53.404;-1.502;2023-07-24T05:15:19;13.52;;;4.78;;
23866;SDS011;12114;53.404;-1.502;2023-07-24T05:18:03;16.88;;;4.47;;
23866;SDS011;12114;53.404;-1.502;2023-07-24T05:20:48;18.38;;;4.82;;
23866;SDS011;12114;53.404;-1.502;2023-07-24T05:23:32;20.38;;;5.35;;
23866;SDS011;12114;53.404;-1.502;2023-07-24T05:26:16;18.58;;;4.18;;
23866;SDS011;12114;53.404;-1.502;2023-07-24T05:29:00;14.60;;;4.28;;
23866;SDS011;12114;53.404;-1.502;2023-07-24T05:31:44;11.55;;;4.00;;
23866;SDS011;12114;53.404;-1.502;2023-07-24T05:34:28;16.40;;;4.20;;
23866;SDS011;12114;53.404;-1.502;2023-07-24T05:37:12;16.33;;;4.43;;
23866;SDS011;12114;53.404;-1.502;2023-07-24T05:39:56;14.75;;;3.65;;
23866;SDS011;12114;53.404;-1.502;2023-07-24T05:42:40;17.88;;;4.45;;
23866;SDS011;12114;53.404;-1.502;2023-07-24T05:45:27;15.95;;;3.80;;
23866;SDS011;12114;53.404;-1.502;2023-07-24T05:48:11;10.38;;;3.60;;
23866;SDS011;12114;53.404;-1.502;2023-07-24T05:50:55;16.40;;;3.85;;
23866;SDS011;12114;53.404;-1.502;2023-07-24T05:53:39;19.50;;;3.80;;
23866;SDS011;12114;53.404;-1.502;2023-07-24T05:56:23;9.85;;;3.45;;
23866;SDS011;12114;53.404;-1.502;2023-07-24T05:59:07;12.10;;;3.78;;
23866;SDS011;12114;53.404;-1.502;2023-07-24T06:01:51;16.67;;;3.70;;
23866;SDS011;12114;53.404;-1.502;2023-07-24T06:04:35;12.30;;;3.90;;
23866;SDS011;12114;53.404;-1.502;2023-07-24T06:07:19;11.07;;;3.28;;
23866;SDS011;12114;53.404;-1.502;2023-07-24T06:10:03;13.88;;;3.50;;
23866;SDS011;12114;53.404;-1.502;2023-07-24T06:12:47;11.23;;;3.40;;
23866;SDS011;12114;53.404;-1.502;2023-07-24T06:15:31;13.55;;;3.78;;
23866;SDS011;12114;53.404;-1.502;2023-07-24T06:18:15;13.82;;;4.90;;
23866;SDS011;12114;53.404;-1.502;2023-07-24T06:20:59;16.30;;;3.42;;
23866;SDS011;12114;53.404;-1.502;2023-07-24T06:23:43;13.32;;;3.20;;
23866;SDS011;12114;53.404;-1.502;2023-07-24T06:26:26;14.48;;;3.35;;
23866;SDS011;12114;53.404;-1.502;2023-07-24T06:29:10;8.30;;;3.28;;
23866;SDS011;12114;53.404;-1.502;2023-07-24T06:31:54;12.45;;;3.97;;
23866;SDS011;12114;53.404;-1.502;2023-07-24T06:34:39;14.57;;;3.47;;
23866;SDS011;12114;53.404;-1.502;2023-07-24T06:37:23;12.10;;;2.63;;
23866;SDS011;12114;53.404;-1.502;2023-07-24T06:40:07;9.23;;;3.10;;
23866;SDS011;12114;53.404;-1.502;2023-07-24T06:42:51;12.40;;;3.00;;
23866;SDS011;12114;53.404;-1.502;2023-07-24T06:45:36;12.43;;;3.03;;
23866;SDS011;12114;53.404;-1.502;2023-07-24T06:48:20;10.23;;;2.88;;
23866;SDS011;12114;53.404;-1.502;2023-07-24T06:51:04;17.13;;;3.25;;
23866;SDS011;12114;53.404;-1.502;2023-07-24T06:53:48;13.77;;;2.72;;
23866;SDS011;12114;53.404;-1.502;2023-07-24T06:56:32;11.10;;;2.95;;
23866;SDS011;12114;53.404;-1.502;2023-07-24T06:59:16;11.57;;;3.05;;
23866;SDS011;12114;53.404;-1.502;2023-07-24T07:02:00;10.82;;;2.95;;
23866;SDS011;12114;53.404;-1.502;2023-07-24T07:04:44;12.80;;;3.13;;
23866;SDS011;12114;53.404;-1.502;2023-07-24T07:07:28;11.80;;;2.72;;
23866;SDS011;12114;53.404;-1.502;2023-07-24T07:10:12;10.32;;;2.55;;
23866;SDS011;12114;53.404;-1.502;2023-07-24T07:12:56;10.75;;;2.22;;
23866;SDS011;12114;53.404;-1.502;2023-07-24T07:15:40;10.93;;;3.33;;
23866;SDS011;12114;53.404;-1.502;2023-07-24T07:18:24;11.20;;;2.30;;
23866;SDS011;12114;53.404;-1.502;2023-07-24T07:21:08;6.55;;;2.92;;
23866;SDS011;12114;53.404;-1.502;2023-07-24T07:23:52;6.38;;;2.35;;
23866;SDS011;12114;53.404;-1.502;2023-07-24T07:26:36;9.98;;;2.90;;
23866;SDS011;12114;53.404;-1.502;2023-07-24T07:29:20;11.93;;;2.80;;
23866;SDS011;12114;53.404;-1.502;2023-07-24T07:32:04;10.82;;;3.15;;
23866;SDS011;12114;53.404;-1.502;2023-07-24T07:34:48;7.57;;;2.45;;
23866;SDS011;12114;53.404;-1.502;2023-07-24T07:37:31;9.70;;;2.60;;
23866;SDS011;12114;53.404;-1.502;2023-07-24T07:40:15;8.63;;;2.70;;
23866;SDS011;12114;53.404;-1.502;2023-07-24T07:42:59;8.02;;;2.78;;
23866;SDS011;12114;53.404;-1.502;2023-07-24T07:45:43;12.40;;;2.70;;
23866;SDS011;12114;53.404;-1.502;2023-07-24T07:48:27;15.23;;;3.00;;
23866;SDS011;12114;53.404;-1.502;2023-07-24T07:51:11;10.93;;;3.25;;
23866;SDS011;12114;53.404;-1.502;2023-07-24T07:53:55;10.55;;;2.70;;
23866;SDS011;12114;53.404;-1.502;2023-07-24T07:56:39;17.48;;;2.88;;
23866;SDS011;12114;53.404;-1.502;2023-07-24T07:59:23;6.72;;;2.55;;
23866;SDS011;12114;53.404;-1.502;2023-07-24T08:02:07;12.95;;;3.13;;
23866;SDS011;12114;53.404;-1.502;2023-07-24T08:04:51;9.68;;;2.72;;
23866;SDS011;12114;53.404;-1.502;2023-07-24T08:07:35;10.07;;;2.55;;
23866;SDS011;12114;53.404;-1.502;2023-07-24T08:10:19;9.75;;;2.85;;
23866;SDS011;12114;53.404;-1.502;2023-07-24T08:13:03;7.80;;;2.50;;
23866;SDS011;12114;53.404;-1.502;2023-07-24T08:15:46;9.45;;;2.50;;
23866;SDS011;12114;53.404;-1.502;2023-07-24T08:18:30;7.53;;;2.42;;
23866;SDS011;12114;53.404;-1.502;2023-07-24T08:21:14;10.10;;;2.53;;
23866;SDS011;12114;53.404;-1.502;2023-07-24T08:23:58;11.45;;;2.80;;
23866;SDS011;12114;53.404;-1.502;2023-07-24T08:26:43;8.43;;;2.28;;
23866;SDS011;12114;53.404;-1.502;2023-07-24T08:29:27;13.32;;;2.90;;
23866;SDS011;12114;53.404;-1.502;2023-07-24T08:32:11;12.60;;;3.50;;
23866;SDS011;12114;53.404;-1.502;2023-07-24T08:34:56;11.43;;;2.55;;
23866;SDS011;12114;53.404;-1.502;2023-07-24T08:37:42;10.82;;;3.67;;
23866;SDS011;12114;53.404;-1.502;2023-07-24T08:40:26;10.10;;;3.00;;
23866;SDS011;12114;53.404;-1.502;2023-07-24T08:43:10;5.35;;;2.83;;
23866;SDS011;12114;53.404;-1.502;2023-07-24T08:45:56;8.35;;;2.83;;
23866;SDS011;12114;53.404;-1.502;2023-07-24T08:48:41;10.40;;;3.35;;
23866;SDS011;12114;53.404;-1.502;2023-07-24T08:51:25;9.27;;;2.73;;
23866;SDS011;12114;53.404;-1.502;2023-07-24T08:54:10;13.27;;;2.88;;
23866;SDS011;12114;53.404;-1.502;2023-07-24T08:56:55;14.00;;;2.80;;
23866;SDS011;12114;53.404;-1.502;2023-07-24T08:59:39;7.78;;;2.83;;
23866;SDS011;12114;53.404;-1.502;2023-07-24T09:02:22;11.00;;;3.20;;
23866;SDS011;12114;53.404;-1.502;2023-07-24T09:05:07;8.23;;;3.28;;
23866;SDS011;12114;53.404;-1.502;2023-07-24T09:07:52;11.57;;;2.85;;
23866;SDS011;12114;53.404;-1.502;2023-07-24T09:10:37;10.57;;;2.78;;
23866;SDS011;12114;53.404;-1.502;2023-07-24T09:13:21;5.90;;;2.33;;
23866;SDS011;12114;53.404;-1.502;2023-07-24T09:16:05;13.27;;;3.28;;
23866;SDS011;12114;53.404;-1.502;2023-07-24T09:18:49;7.10;;;3.17;;
23866;SDS011;12114;53.404;-1.502;2023-07-24T09:21:35;8.63;;;3.80;;
23866;SDS011;12114;53.404;-1.502;2023-07-24T09:24:19;11.98;;;3.15;;
23866;SDS011;12114;53.404;-1.502;2023-07-24T09:27:04;8.63;;;2.65;;
23866;SDS011;12114;53.404;-1.502;2023-07-24T09:29:48;13.90;;;2.30;;
23866;SDS011;12114;53.404;-1.502;2023-07-24T09:32:32;10.75;;;2.05;;
23866;SDS011;12114;53.404;-1.502;2023-07-24T09:35:17;5.95;;;1.85;;
23866;SDS011;12114;53.404;-1.502;2023-07-24T09:38:09;6.47;;;1.63;;
23866;SDS011;12114;53.404;-1.502;2023-07-24T09:40:53;8.32;;;2.10;;
23866;SDS011;12114;53.404;-1.502;2023-07-24T09:43:41;5.70;;;2.33;;
23866;SDS011;12114;53.404;-1.502;2023-07-24T09:46:24;10.07;;;2.05;;
23866;SDS011;12114;53.404;-1.502;2023-07-24T09:49:09;7.55;;;1.80;;
23866;SDS011;12114;53.404;-1.502;2023-07-24T09:51:53;10.40;;;1.95;;
23866;SDS011;12114;53.404;-1.502;2023-07-24T09:54:42;5.20;;;2.05;;
23866;SDS011;12114;53.404;-1.502;2023-07-24T09:57:28;4.55;;;1.33;;
23866;SDS011;12114;53.404;-1.502;2023-07-24T10:00:13;7.97;;;1.85;;
23866;SDS011;12114;53.404;-1.502;2023-07-24T10:02:57;9.13;;;2.20;;
23866;SDS011;12114;53.404;-1.502;2023-07-24T10:05:43;6.82;;;2.08;;
23866;SDS011;12114;53.404;-1.502;2023-07-24T10:08:28;9.48;;;1.77;;
23866;SDS011;12114;53.404;-1.502;2023-07-24T10:11:13;9.60;;;2.85;;
23866;SDS011;12114;53.404;-1.502;2023-07-24T10:13:57;6.82;;;1.75;;
23866;SDS011;12114;53.404;-1.502;2023-07-24T10:16:41;7.78;;;1.90;;
23866;SDS011;12114;53.404;-1.502;2023-07-24T10:19:34;4.82;;;1.83;;
23866;SDS011;12114;53.404;-1.502;2023-07-24T10:22:20;7.78;;;2.08;;
23866;SDS011;12114;53.404;-1.502;2023-07-24T10:25:04;8.07;;;1.90;;
23866;SDS011;12114;53.404;-1.502;2023-07-24T10:27:48;9.13;;;2.30;;
23866;SDS011;12114;53.404;-1.502;2023-07-24T10:30:34;5.32;;;1.70;;
23866;SDS011;12114;53.404;-1.502;2023-07-24T10:33:19;6.20;;;2.13;;
23866;SDS011;12114;53.404;-1.502;2023-07-24T10:36:04;5.65;;;1.88;;
23866;SDS011;12114;53.404;-1.502;2023-07-24T10:38:52;8.40;;;1.93;;
23866;SDS011;12114;53.404;-1.502;2023-07-24T10:41:37;6.03;;;1.55;;
23866;SDS011;12114;53.404;-1.502;2023-07-24T10:44:30;6.25;;;1.80;;
23866;SDS011;12114;53.404;-1.502;2023-07-24T10:47:13;8.20;;;2.22;;
23866;SDS011;12114;53.404;-1.502;2023-07-24T10:49:57;8.75;;;1.77;;
23866;SDS011;12114;53.404;-1.502;2023-07-24T10:52:41;6.25;;;1.30;;
23866;SDS011;12114;53.404;-1.502;2023-07-24T10:55:25;5.38;;;1.88;;
23866;SDS011;12114;53.404;-1.502;2023-07-24T10:58:11;5.23;;;1.57;;
23866;SDS011;12114;53.404;-1.502;2023-07-24T11:00:55;5.97;;;1.50;;
23866;SDS011;12114;53.404;-1.502;2023-07-24T11:03:40;5.85;;;1.98;;
23866;SDS011;12114;53.404;-1.502;2023-07-24T11:06:24;6.40;;;1.20;;
23866;SDS011;12114;53.404;-1.502;2023-07-24T11:09:08;7.60;;;1.55;;
23866;SDS011;12114;53.404;-1.502;2023-07-24T11:11:52;5.18;;;1.90;;
23866;SDS011;12114;53.404;-1.502;2023-07-24T11:14:45;4.93;;;1.40;;
23866;SDS011;12114;53.404;-1.502;2023-07-24T11:17:35;8.40;;;1.80;;
23866;SDS011;12114;53.404;-1.502;2023-07-24T11:20:23;3.85;;;1.25;;
23866;SDS011;12114;53.404;-1.502;2023-07-24T11:23:07;6.10;;;1.38;;
23866;SDS011;12114;53.404;-1.502;2023-07-24T11:25:52;4.00;;;1.30;;
23866;SDS011;12114;53.404;-1.502;2023-07-24T11:28:40;6.07;;;1.70;;
23866;SDS011;12114;53.404;-1.502;2023-07-24T11:31:24;12.27;;;1.85;;
23866;SDS011;12114;53.404;-1.502;2023-07-24T11:34:08;8.10;;;1.75;;
23866;SDS011;12114;53.404;-1.502;2023-07-24T11:36:52;8.43;;;1.77;;
23866;SDS011;12114;53.404;-1.502;2023-07-24T11:39:36;7.28;;;1.73;;
23866;SDS011;12114;53.404;-1.502;2023-07-24T11:42:20;5.10;;;1.48;;
23866;SDS011;12114;53.404;-1.502;2023-07-24T11:45:04;5.53;;;1.90;;
23866;SDS011;12114;53.404;-1.502;2023-07-24T11:47:49;6.95;;;2.15;;
23866;SDS011;12114;53.404;-1.502;2023-07-24T11:50:41;7.35;;;1.50;;
23866;SDS011;12114;53.404;-1.502;2023-07-24T11:53:26;3.97;;;1.45;;
23866;SDS011;12114;53.404;-1.502;2023-07-24T11:56:15;3.25;;;1.30;;
23866;SDS011;12114;53.404;-1.502;2023-07-24T11:59:14;6.95;;;1.30;;
23866;SDS011;12114;53.404;-1.502;2023-07-24T12:01:59;5.43;;;1.85;;
23866;SDS011;12114;53.404;-1.502;2023-07-24T12:04:44;10.05;;;1.50;;
23866;SDS011;12114;53.404;-1.502;2023-07-24T12:07:29;6.50;;;1.75;;
23866;SDS011;12114;53.404;-1.502;2023-07-24T12:10:24;6.85;;;1.35;;
23866;SDS011;12114;53.404;-1.502;2023-07-24T12:15:54;3.30;;;1.10;;
23866;SDS011;12114;53.404;-1.502;2023-07-24T12:18:38;6.93;;;2.00;;
23866;SDS011;12114;53.404;-1.502;2023-07-24T12:21:22;6.72;;;1.85;;
23866;SDS011;12114;53.404;-1.502;2023-07-24T12:24:06;6.85;;;1.48;;
23866;SDS011;12114;53.404;-1.502;2023-07-24T12:26:50;5.65;;;1.10;;
23866;SDS011;12114;53.404;-1.502;2023-07-24T12:29:34;6.38;;;1.52;;
23866;SDS011;12114;53.404;-1.502;2023-07-24T12:32:18;6.05;;;1.40;;
23866;SDS011;12114;53.404;-1.502;2023-07-24T12:35:02;7.35;;;1.52;;
23866;SDS011;12114;53.404;-1.502;2023-07-24T12:37:46;5.57;;;1.40;;
23866;SDS011;12114;53.404;-1.502;2023-07-24T12:40:30;3.97;;;1.17;;
23866;SDS011;12114;53.404;-1.502;2023-07-24T12:43:14;2.92;;;1.20;;
23866;SDS011;12114;53.404;-1.502;2023-07-24T12:45:59;6.90;;;1.10;;
23866;SDS011;12114;53.404;-1.502;2023-07-24T12:48:42;5.13;;;1.60;;
23866;SDS011;12114;53.404;-1.502;2023-07-24T12:51:26;7.03;;;1.33;;
23866;SDS011;12114;53.404;-1.502;2023-07-24T12:54:10;6.68;;;1.50;;
23866;SDS011;12114;53.404;-1.502;2023-07-24T12:56:54;4.97;;;1.45;;
23866;SDS011;12114;53.404;-1.502;2023-07-24T12:59:38;5.28;;;1.60;;
23866;SDS011;12114;53.404;-1.502;2023-07-24T13:02:22;4.20;;;1.55;;
23866;SDS011;12114;53.404;-1.502;2023-07-24T13:05:06;7.57;;;1.40;;
23866;SDS011;12114;53.404;-1.502;2023-07-24T13:07:50;9.38;;;1.70;;
23866;SDS011;12114;53.404;-1.502;2023-07-24T13:10:34;4.60;;;1.30;;
23866;SDS011;12114;53.404;-1.502;2023-07-24T13:13:18;6.07;;;1.77;;
23866;SDS011;12114;53.404;-1.502;2023-07-24T13:16:02;7.13;;;2.30;;
23866;SDS011;12114;53.404;-1.502;2023-07-24T13:18:46;5.45;;;1.40;;
23866;SDS011;12114;53.404;-1.502;2023-07-24T13:21:31;6.22;;;1.50;;
23866;SDS011;12114;53.404;-1.502;2023-07-24T13:24:15;4.30;;;1.47;;
23866;SDS011;12114;53.404;-1.502;2023-07-24T13:26:59;6.15;;;1.45;;
23866;SDS011;12114;53.404;-1.502;2023-07-24T13:29:43;6.10;;;1.17;;
23866;SDS011;12114;53.404;-1.502;2023-07-24T13:32:27;4.70;;;2.00;;
23866;SDS011;12114;53.404;-1.502;2023-07-24T13:35:13;3.90;;;1.25;;
23866;SDS011;12114;53.404;-1.502;2023-07-24T13:37:58;4.93;;;1.15;;
23866;SDS011;12114;53.404;-1.502;2023-07-24T13:40:42;5.03;;;1.38;;
23866;SDS011;12114;53.404;-1.502;2023-07-24T13:43:27;3.53;;;0.90;;
23866;SDS011;12114;53.404;-1.502;2023-07-24T13:46:10;8.27;;;1.48;;
23866;SDS011;12114;53.404;-1.502;2023-07-24T13:48:54;6.57;;;1.48;;
23866;SDS011;12114;53.404;-1.502;2023-07-24T13:51:39;4.78;;;1.23;;
23866;SDS011;12114;53.404;-1.502;2023-07-24T13:54:22;4.32;;;1.08;;
23866;SDS011;12114;53.404;-1.502;2023-07-24T13:57:07;4.30;;;1.20;;
23866;SDS011;12114;53.404;-1.502;2023-07-24T13:59:52;5.30;;;1.42;;
23866;SDS011;12114;53.404;-1.502;2023-07-24T14:02:36;4.93;;;1.23;;
23866;SDS011;12114;53.404;-1.502;2023-07-24T14:05:20;7.43;;;1.42;;
23866;SDS011;12114;53.404;-1.502;2023-07-24T14:08:04;4.78;;;1.50;;
23866;SDS011;12114;53.404;-1.502;2023-07-24T14:10:48;6.78;;;2.03;;
23866;SDS011;12114;53.404;-1.502;2023-07-24T14:13:32;6.20;;;0.93;;
23866;SDS011;12114;53.404;-1.502;2023-07-24T14:16:16;3.40;;;1.00;;
23866;SDS011;12114;53.404;-1.502;2023-07-24T14:19:00;4.93;;;1.00;;
23866;SDS011;12114;53.404;-1.502;2023-07-24T14:21:44;4.55;;;1.38;;
23866;SDS011;12114;53.404;-1.502;2023-07-24T14:24:29;4.72;;;1.27;;
23866;SDS011;12114;53.404;-1.502;2023-07-24T14:27:16;6.07;;;1.10;;
23866;SDS011;12114;53.404;-1.502;2023-07-24T14:29:59;5.97;;;1.38;;
23866;SDS011;12114;53.404;-1.502;2023-07-24T14:32:43;6.50;;;1.40;;
23866;SDS011;12114;53.404;-1.502;2023-07-24T14:35:27;3.50;;;1.17;;
23866;SDS011;12114;53.404;-1.502;2023-07-24T14:38:12;7.38;;;1.15;;
23866;SDS011;12114;53.404;-1.502;2023-07-24T14:40:58;5.82;;;1.80;;
23866;SDS011;12114;53.404;-1.502;2023-07-24T14:43:42;5.65;;;1.42;;
23866;SDS011;12114;53.404;-1.502;2023-07-24T14:46:26;4.93;;;1.30;;
23866;SDS011;12114;53.404;-1.502;2023-07-24T14:49:11;4.00;;;1.00;;
23866;SDS011;12114;53.404;-1.502;2023-07-24T14:51:55;3.47;;;1.10;;
23866;SDS011;12114;53.404;-1.502;2023-07-24T14:54:41;4.97;;;1.30;;
23866;SDS011;12114;53.404;-1.502;2023-07-24T14:57:25;7.25;;;1.40;;
23866;SDS011;12114;53.404;-1.502;2023-07-24T15:00:09;2.38;;;1.10;;
23866;SDS011;12114;53.404;-1.502;2023-07-24T15:02:54;4.22;;;1.35;;
23866;SDS011;12114;53.404;-1.502;2023-07-24T15:05:40;3.58;;;0.88;;
23866;SDS011;12114;53.404;-1.502;2023-07-24T15:08:24;2.40;;;0.80;;
23866;SDS011;12114;53.404;-1.502;2023-07-24T15:11:09;5.50;;;1.30;;
23866;SDS011;12114;53.404;-1.502;2023-07-24T15:13:53;4.13;;;1.00;;
23866;SDS011;12114;53.404;-1.502;2023-07-24T15:16:39;5.55;;;1.02;;
23866;SDS011;12114;53.404;-1.502;2023-07-24T15:19:23;3.45;;;0.90;;
23866;SDS011;12114;53.404;-1.502;2023-07-24T15:22:07;3.63;;;1.02;;
23866;SDS011;12114;53.404;-1.502;2023-07-24T15:24:51;3.67;;;1.20;;
23866;SDS011;12114;53.404;-1.502;2023-07-24T15:27:35;3.83;;;1.02;;
23866;SDS011;12114;53.404;-1.502;2023-07-24T15:30:19;3.28;;;1.00;;
23866;SDS011;12114;53.404;-1.502;2023-07-24T15:33:03;4.22;;;1.23;;
23866;SDS011;12114;53.404;-1.502;2023-07-24T15:35:47;2.30;;;0.85;;
23866;SDS011;12114;53.404;-1.502;2023-07-24T15:38:31;1.38;;;0.90;;
23866;SDS011;12114;53.404;-1.502;2023-07-24T15:41:17;3.67;;;0.93;;
23866;SDS011;12114;53.404;-1.502;2023-07-24T15:44:01;3.17;;;1.15;;
23866;SDS011;12114;53.404;-1.502;2023-07-24T15:46:45;2.22;;;1.10;;
23866;SDS011;12114;53.404;-1.502;2023-07-24T15:49:30;3.53;;;1.00;;
23866;SDS011;12114;53.404;-1.502;2023-07-24T15:52:14;6.60;;;1.30;;
23866;SDS011;12114;53.404;-1.502;2023-07-24T15:54:59;4.65;;;0.90;;
23866;SDS011;12114;53.404;-1.502;2023-07-24T15:57:43;5.43;;;1.15;;
23866;SDS011;12114;53.404;-1.502;2023-07-24T16:00:27;4.13;;;1.10;;
23866;SDS011;12114;53.404;-1.502;2023-07-24T16:03:14;4.00;;;1.00;;
23866;SDS011;12114;53.404;-1.502;2023-07-24T16:05:58;2.55;;;0.80;;
23866;SDS011;12114;53.404;-1.502;2023-07-24T16:08:42;7.35;;;1.40;;
23866;SDS011;12114;53.404;-1.502;2023-07-24T16:11:26;5.70;;;1.70;;
23866;SDS011;12114;53.404;-1.502;2023-07-24T16:14:11;4.35;;;1.20;;
23866;SDS011;12114;53.404;-1.502;2023-07-24T16:16:55;3.95;;;1.17;;
23866;SDS011;12114;53.404;-1.502;2023-07-24T16:19:39;5.50;;;0.98;;